Ashaway, Rhode Island
Current Conditions -  °F | °C
As of 9:53 PM on Friday 21 Nov 2014 (Local Time) from KWST Reporting Station
Clear Clear  
Wind Chill: 27°   Ceiling: Unl
Heat Index: 27°   Visibility: 10mi
Dew Point:   Wind: 3mph
Humidity: 43%   Direction: NA
Pressure: 30.46"   Gusts: NA
Location:  41.43°N, 71.79°W
Report Text: KWST 220253Z AUTO VRB03KT 10SM CLR M03/M14 A3046 RMK AO2 SLP316 T10281139 51019
Loading
Personal Weather Stations






























Interactive Weather Map New forecast layout! Learn more

10-Day Weather Forecast

Advertisements
Track Severe Weather on mobile